createdAt,value
2022-10-31T00:01:37.033Z,100349.09
2022-10-31T00:04:09.750Z,100350.31
2022-10-31T00:06:38.847Z,100344.19
2022-10-31T00:09:11.199Z,100333.59
2022-10-31T00:11:44.475Z,100331.06
2022-10-31T00:14:12.214Z,100332.06
2022-10-31T00:16:42.697Z,100322.38
2022-10-31T00:19:10.587Z,100321.59
2022-10-31T00:21:38.830Z,100319.91
2022-10-31T00:24:06.769Z,100321.50
2022-10-31T00:26:34.920Z,100301.50
2022-10-31T00:29:06.705Z,100299.59
2022-10-31T00:31:35.877Z,100302.44
2022-10-31T00:34:05.371Z,100302.22
2022-10-31T00:36:34.364Z,100304.22
2022-10-31T00:39:02.499Z,100308.84
2022-10-31T00:41:30.875Z,100306.94
2022-10-31T00:43:58.887Z,100310.53
2022-10-31T00:46:26.986Z,100306.88
2022-10-31T00:48:54.733Z,100308.84
2022-10-31T00:51:22.614Z,100299.31
2022-10-31T00:53:50.195Z,100301.97
2022-10-31T00:56:19.098Z,100307.25
2022-10-31T00:58:46.745Z,100297.78
2022-10-31T01:01:14.614Z,100294.31
2022-10-31T01:03:42.443Z,100284.09
2022-10-31T01:06:14.500Z,100281.34
2022-10-31T01:08:48.053Z,100272.56
2022-10-31T01:11:22.138Z,100279.50
2022-10-31T01:13:53.021Z,100284.94
2022-10-31T01:16:23.411Z,100287.69
2022-10-31T01:18:52.141Z,100284.31
2022-10-31T01:21:23.219Z,100281.81
2022-10-31T01:23:54.775Z,100283.53
2022-10-31T01:26:26.526Z,100276.84
2022-10-31T01:28:58.041Z,100279.75
2022-10-31T01:31:32.216Z,100283.16
2022-10-31T01:34:00.568Z,100279.75
2022-10-31T01:36:31.422Z,100277.84
2022-10-31T01:39:03.878Z,100281.66
2022-10-31T01:41:35.056Z,100287.31
2022-10-31T01:44:17.348Z,100281.34
2022-10-31T01:46:47.397Z,100274.44
2022-10-31T01:49:25.481Z,100268.41
2022-10-31T01:51:57.711Z,100266.88
2022-10-31T01:54:32.003Z,100278.50
2022-10-31T01:57:03.716Z,100264.81
2022-10-31T01:59:35.210Z,100275.44
2022-10-31T02:02:03.098Z,100273.66
2022-10-31T02:04:31.107Z,100280.22
2022-10-31T02:07:11.611Z,100275.66
2022-10-31T02:09:39.310Z,100285.34
2022-10-31T02:12:08.270Z,100276.72
2022-10-31T02:14:37.454Z,100283.75
2022-10-31T02:17:04.998Z,100281.25
2022-10-31T02:19:51.661Z,100283.56
2022-10-31T02:22:38.450Z,100281.13
2022-10-31T02:25:28.641Z,100288.31
2022-10-31T02:28:06.158Z,100279.56
2022-10-31T02:31:04.098Z,100288.09
2022-10-31T02:33:41.590Z,100286.44
2022-10-31T02:36:16.461Z,100277.06
2022-10-31T02:39:02.156Z,100272.19
2022-10-31T02:41:45.016Z,100288.88
2022-10-31T02:44:29.839Z,100280.38
2022-10-31T02:47:06.515Z,100277.13
2022-10-31T02:49:41.118Z,100277.97
2022-10-31T02:52:22.795Z,100283.34
2022-10-31T02:54:50.847Z,100287.09
2022-10-31T02:57:30.433Z,100280.91
2022-10-31T03:00:09.539Z,100273.00
2022-10-31T03:02:55.873Z,100267.03
2022-10-31T03:05:29.581Z,100276.75
2022-10-31T03:08:12.011Z,100270.50
2022-10-31T03:10:39.548Z,100259.19
2022-10-31T03:13:35.458Z,100268.91
2022-10-31T03:16:11.309Z,100269.91
2022-10-31T03:18:45.240Z,100263.97
2022-10-31T03:21:20.883Z,100260.31
2022-10-31T03:23:51.621Z,100257.84
2022-10-31T03:26:23.353Z,100264.94
2022-10-31T03:28:59.827Z,100269.50
2022-10-31T03:31:34.132Z,100259.16
2022-10-31T03:34:04.049Z,100263.47
2022-10-31T03:36:35.779Z,100260.75
2022-10-31T03:39:07.429Z,100269.63
2022-10-31T03:41:40.265Z,100271.16
2022-10-31T03:44:14.971Z,100266.72
2022-10-31T03:46:44.769Z,100258.19
2022-10-31T03:49:13.529Z,100260.09
2022-10-31T03:51:56.157Z,100254.97
2022-10-31T03:55:16.807Z,100262.13
2022-10-31T03:58:04.019Z,100240.44
2022-10-31T04:00:35.866Z,100264.88
2022-10-31T04:03:12.808Z,100268.34
2022-10-31T04:05:46.986Z,100264.19
2022-10-31T04:08:20.953Z,100267.41
2022-10-31T04:10:51.105Z,100265.03
2022-10-31T04:13:30.019Z,100274.75
2022-10-31T04:16:06.377Z,100279.16
2022-10-31T04:18:34.480Z,100271.34
2022-10-31T04:21:08.472Z,100272.69
2022-10-31T04:23:38.265Z,100277.88
2022-10-31T04:26:16.262Z,100280.72
2022-10-31T04:28:45.939Z,100285.28
2022-10-31T04:31:14.564Z,100281.81
2022-10-31T04:33:44.461Z,100284.34
2022-10-31T04:36:13.320Z,100287.00
2022-10-31T04:38:40.958Z,100274.56
2022-10-31T04:41:17.993Z,100276.94
2022-10-31T04:43:55.397Z,100285.13
2022-10-31T04:46:23.359Z,100284.00
2022-10-31T04:48:50.984Z,100269.97
2022-10-31T04:51:18.920Z,100287.50
2022-10-31T04:53:46.505Z,100295.91
2022-10-31T04:56:43.253Z,100298.97
2022-10-31T04:59:16.300Z,100289.19
2022-10-31T05:01:55.455Z,100290.03
2022-10-31T05:04:38.944Z,100302.38
2022-10-31T05:07:06.580Z,100292.16
2022-10-31T05:09:34.334Z,100291.88
2022-10-31T05:12:03.234Z,100296.91
2022-10-31T05:14:49.302Z,100295.41
2022-10-31T05:17:36.546Z,100304.25
2022-10-31T05:20:26.274Z,100303.31
2022-10-31T05:23:12.698Z,100310.88
2022-10-31T05:25:43.830Z,100309.09
2022-10-31T05:28:11.810Z,100314.19
2022-10-31T05:30:39.368Z,100315.31
2022-10-31T05:33:11.252Z,100308.06
2022-10-31T05:35:59.404Z,100314.03
2022-10-31T05:38:53.019Z,100308.25
2022-10-31T05:41:31.779Z,100324.28
2022-10-31T05:44:06.833Z,100329.72
2022-10-31T05:46:47.600Z,100327.53
2022-10-31T05:49:50.779Z,100342.19
2022-10-31T05:52:38.807Z,100334.16
2022-10-31T05:55:16.566Z,100344.81
2022-10-31T05:57:59.054Z,100344.03
2022-10-31T06:00:27.750Z,100345.56
2022-10-31T06:05:50.619Z,100353.91
2022-10-31T06:08:24.080Z,100343.59
2022-10-31T06:10:54.126Z,100355.78
2022-10-31T06:13:32.890Z,100358.25
2022-10-31T06:16:06.556Z,100346.25
2022-10-31T06:18:38.237Z,100369.41
2022-10-31T06:21:12.537Z,100353.56
2022-10-31T06:23:43.414Z,100356.97
2022-10-31T06:26:29.705Z,100355.28
2022-10-31T06:29:01.416Z,100363.88
2022-10-31T06:31:53.078Z,100360.41
2022-10-31T06:34:21.086Z,100353.75
2022-10-31T06:36:48.866Z,100360.84
2022-10-31T06:39:17.911Z,100363.88
2022-10-31T06:41:49.177Z,100372.66
2022-10-31T06:44:19.993Z,100360.88
2022-10-31T06:46:56.685Z,100360.88
2022-10-31T06:49:50.586Z,100367.97
2022-10-31T06:52:21.819Z,100352.47
2022-10-31T06:54:50.302Z,100360.97
2022-10-31T06:57:18.180Z,100353.91
2022-10-31T06:59:46.294Z,100355.78
2022-10-31T07:02:20.657Z,100354.75
2022-10-31T07:04:50.098Z,100357.31
2022-10-31T07:07:22.253Z,100334.34
2022-10-31T07:09:52.015Z,100366.59
2022-10-31T07:12:24.844Z,100357.66
2022-10-31T07:14:59.018Z,100364.31
2022-10-31T07:17:29.822Z,100364.66
2022-10-31T07:20:00.705Z,100368.22
2022-10-31T07:22:36.337Z,100359.09
2022-10-31T07:25:06.453Z,100355.94
2022-10-31T07:27:42.923Z,100363.78
2022-10-31T07:30:14.213Z,100372.72
2022-10-31T07:32:44.016Z,100385.72
2022-10-31T07:35:17.353Z,100387.28
2022-10-31T07:37:50.903Z,100383.88
2022-10-31T07:40:19.305Z,100373.56
2022-10-31T07:42:50.370Z,100367.53
2022-10-31T07:45:54.969Z,100367.19
2022-10-31T07:48:41.635Z,100368.38
2022-10-31T07:51:28.199Z,100368.72
2022-10-31T07:54:10.829Z,100367.88
2022-10-31T07:56:40.337Z,100360.38
2022-10-31T07:59:08.155Z,100366.59
2022-10-31T08:01:35.985Z,100365.47
2022-10-31T08:04:23.714Z,100372.47
2022-10-31T08:07:10.181Z,100368.81
2022-10-31T08:09:40.315Z,100357.16
2022-10-31T08:12:19.613Z,100362.34
2022-10-31T08:14:47.654Z,100359.53
2022-10-31T08:17:18.150Z,100377.75
2022-10-31T08:19:56.890Z,100386.44
2022-10-31T08:22:42.908Z,100393.25
2022-10-31T08:25:13.225Z,100389.31
2022-10-31T08:27:41.942Z,100383.38
2022-10-31T08:30:17.634Z,100379.88
2022-10-31T08:33:04.032Z,100390.69
2022-10-31T08:36:04.281Z,100389.69
2022-10-31T08:38:50.429Z,100392.38
2022-10-31T08:41:20.922Z,100382.94
2022-10-31T08:43:49.095Z,100411.63
2022-10-31T08:46:19.425Z,100395.28
2022-10-31T08:48:51.075Z,100392.38
2022-10-31T08:51:20.350Z,100375.88
2022-10-31T08:53:51.699Z,100399.34
2022-10-31T08:56:35.795Z,100400.66
2022-10-31T08:59:07.976Z,100409.56
2022-10-31T09:01:55.632Z,100414.59
2022-10-31T09:04:23.747Z,100421.19
2022-10-31T09:07:19.543Z,100395.50
2022-10-31T09:09:40.096Z,100420.13
2022-10-31T09:12:07.645Z,100412.91
2022-10-31T09:14:51.799Z,100409.41
2022-10-31T09:17:25.223Z,100420.78
2022-10-31T09:20:13.036Z,100409.34
2022-10-31T09:22:40.729Z,100411.44
2022-10-31T09:25:09.286Z,100414.75
2022-10-31T09:27:39.497Z,100407.09
2022-10-31T09:30:10.682Z,100420.63
2022-10-31T09:32:39.839Z,100420.38
2022-10-31T09:35:09.620Z,100417.13
2022-10-31T09:37:38.283Z,100424.66
2022-10-31T09:40:09.674Z,100409.69
2022-10-31T09:42:58.783Z,100416.91
2022-10-31T09:45:38.129Z,100420.19
2022-10-31T09:48:35.029Z,100435.06
2022-10-31T09:51:34.031Z,100435.50
2022-10-31T09:54:29.510Z,100426.94
2022-10-31T09:57:01.258Z,100434.09
2022-10-31T09:59:36.041Z,100437.69
2022-10-31T10:02:14.150Z,100438.91
2022-10-31T10:04:59.488Z,100447.50
2022-10-31T10:07:51.029Z,100442.69
2022-10-31T10:10:56.226Z,100448.25
2022-10-31T10:13:58.807Z,100451.56
2022-10-31T10:16:50.785Z,100461.00
2022-10-31T10:19:24.497Z,100468.63
2022-10-31T10:21:57.793Z,100463.03
2022-10-31T10:24:46.149Z,100470.00
2022-10-31T10:27:22.295Z,100470.94
2022-10-31T10:30:01.832Z,100469.06
2022-10-31T10:32:32.566Z,100490.56
2022-10-31T10:35:32.563Z,100499.59
2022-10-31T10:38:24.097Z,100505.78
2022-10-31T10:40:54.155Z,100513.38
2022-10-31T10:43:31.835Z,100505.16
2022-10-31T10:46:38.494Z,100519.84
2022-10-31T10:49:24.144Z,100498.94
2022-10-31T10:52:19.817Z,100520.84
2022-10-31T10:54:57.820Z,100526.31
2022-10-31T10:57:41.576Z,100504.44
2022-10-31T11:00:22.185Z,100524.28
2022-10-31T11:02:50.521Z,100515.44
2022-10-31T11:05:41.875Z,100527.53
2022-10-31T11:08:10.094Z,100535.91
2022-10-31T11:10:38.514Z,100518.53
2022-10-31T11:13:14.816Z,100541.63
2022-10-31T11:16:27.223Z,100548.75
2022-10-31T11:19:17.693Z,100519.66
2022-10-31T11:21:51.222Z,100542.25
2022-10-31T11:24:27.292Z,100532.53
2022-10-31T11:27:30.806Z,100549.28
2022-10-31T11:30:06.942Z,100551.84
2022-10-31T11:32:35.197Z,100558.63
2022-10-31T11:35:10.898Z,100543.94
2022-10-31T11:37:44.288Z,100566.78
2022-10-31T11:40:38.314Z,100559.75
2022-10-31T11:43:06.421Z,100565.00
2022-10-31T11:45:35.273Z,100577.13
2022-10-31T11:48:04.501Z,100592.50
2022-10-31T11:50:38.274Z,100592.31
2022-10-31T11:53:16.174Z,100589.38
2022-10-31T11:55:44.386Z,100588.25
2022-10-31T11:58:26.460Z,100580.63
2022-10-31T12:00:57.404Z,100600.47
2022-10-31T12:03:25.288Z,100598.41
2022-10-31T12:06:20.716Z,100606.03
2022-10-31T12:08:49.475Z,100626.56
2022-10-31T12:11:44.135Z,100594.78
2022-10-31T12:14:23.553Z,100595.44
2022-10-31T12:16:57.284Z,100617.78
2022-10-31T12:19:37.331Z,100603.47
2022-10-31T12:22:26.577Z,100627.13
2022-10-31T12:25:26.248Z,100635.16
2022-10-31T12:28:06.317Z,100651.81
2022-10-31T12:31:05.869Z,100643.56
2022-10-31T12:33:56.826Z,100649.63
2022-10-31T12:37:11.874Z,100650.47
2022-10-31T12:39:56.385Z,100658.31
2022-10-31T12:42:39.678Z,100666.97
2022-10-31T12:45:23.325Z,100669.84
2022-10-31T12:47:59.860Z,100671.56
2022-10-31T12:50:44.498Z,100668.19
2022-10-31T12:53:29.207Z,100683.50
2022-10-31T12:56:13.463Z,100687.28
2022-10-31T12:59:15.668Z,100685.94
2022-10-31T13:02:10.625Z,100692.38
2022-10-31T13:04:50.646Z,100690.41
2022-10-31T13:07:36.228Z,100699.50
2022-10-31T13:10:16.572Z,100704.81
2022-10-31T13:12:49.215Z,100702.81
2022-10-31T13:15:24.266Z,100706.38
2022-10-31T13:18:15.739Z,100711.72
2022-10-31T13:20:53.099Z,100715.06
2022-10-31T13:23:51.303Z,100722.47
2022-10-31T13:26:34.273Z,100723.59
2022-10-31T13:29:51.060Z,100718.13
2022-10-31T13:32:19.905Z,100733.09
2022-10-31T13:34:54.221Z,100737.50
2022-10-31T13:37:47.160Z,100735.63
2022-10-31T13:40:37.113Z,100743.81
2022-10-31T13:43:13.390Z,100753.66
2022-10-31T13:45:54.115Z,100756.13
2022-10-31T13:48:28.284Z,100751.28
2022-10-31T13:50:58.366Z,100748.72
2022-10-31T13:53:41.432Z,100747.72
2022-10-31T13:56:08.940Z,100758.72
2022-10-31T13:58:37.765Z,100760.53
2022-10-31T14:01:11.674Z,100764.84
2022-10-31T14:06:38.786Z,100786.25
2022-10-31T14:09:19.054Z,100785.44
2022-10-31T14:11:50.728Z,100788.28
2022-10-31T14:14:20.471Z,100788.47
2022-10-31T14:16:57.386Z,100791.03
2022-10-31T14:19:27.194Z,100795.63
2022-10-31T14:21:55.159Z,100789.66
2022-10-31T14:24:25.910Z,100797.00
2022-10-31T14:27:03.436Z,100803.38
2022-10-31T14:29:34.713Z,100813.72
2022-10-31T14:32:19.321Z,100808.81
2022-10-31T14:34:50.697Z,100815.94
2022-10-31T14:37:36.823Z,100822.97
2022-10-31T14:40:09.462Z,100830.94
2022-10-31T14:42:52.325Z,100836.25
2022-10-31T14:45:44.439Z,100831.84
2022-10-31T14:48:33.011Z,100843.59
2022-10-31T14:51:15.425Z,100842.69
2022-10-31T14:53:51.883Z,100848.78
2022-10-31T14:56:26.058Z,100857.91
2022-10-31T14:58:56.490Z,100863.41
2022-10-31T15:01:38.118Z,100863.34
2022-10-31T15:04:29.717Z,100874.78
2022-10-31T15:07:18.159Z,100880.34
2022-10-31T15:10:21.057Z,100873.56
2022-10-31T15:12:48.705Z,100883.41
2022-10-31T15:15:23.232Z,100898.28
2022-10-31T15:17:59.696Z,100894.03
2022-10-31T15:20:31.274Z,100910.72
2022-10-31T15:23:00.661Z,100917.94
2022-10-31T15:25:34.449Z,100919.63
2022-10-31T15:28:13.737Z,100926.69
2022-10-31T15:30:41.288Z,100925.88
2022-10-31T15:33:22.224Z,100936.47
2022-10-31T15:35:58.106Z,100938.47
2022-10-31T15:38:27.275Z,100940.28
2022-10-31T15:40:59.706Z,100939.53
2022-10-31T15:43:33.069Z,100944.06
2022-10-31T15:46:01.696Z,100942.31
2022-10-31T15:48:32.934Z,100953.69
2022-10-31T15:51:00.561Z,100950.34
2022-10-31T15:53:37.601Z,100960.84
2022-10-31T15:56:08.778Z,100966.16
2022-10-31T15:58:45.007Z,100971.44
2022-10-31T16:01:42.340Z,100977.81
2022-10-31T16:04:12.918Z,100989.31
2022-10-31T16:06:41.927Z,100988.69
2022-10-31T16:09:23.625Z,100988.09
2022-10-31T16:11:52.010Z,100991.69
2022-10-31T16:14:26.992Z,100988.03
2022-10-31T16:16:57.865Z,100999.59
2022-10-31T16:19:47.151Z,100998.84
2022-10-31T16:22:25.026Z,101007.75
2022-10-31T16:25:21.095Z,101003.50
2022-10-31T16:28:00.413Z,100996.50
2022-10-31T16:30:48.185Z,101002.69
2022-10-31T16:33:28.908Z,101008.97
2022-10-31T16:36:09.466Z,101009.75
2022-10-31T16:38:43.670Z,101027.28
2022-10-31T16:41:11.209Z,101022.91
2022-10-31T16:43:39.206Z,101028.22
2022-10-31T16:46:06.749Z,101023.88
2022-10-31T16:48:34.440Z,101024.88
2022-10-31T16:51:03.760Z,101038.06
2022-10-31T16:53:32.804Z,101034.66
2022-10-31T16:56:03.696Z,101032.19
2022-10-31T16:58:34.197Z,101033.91
2022-10-31T17:01:07.149Z,101044.78
2022-10-31T17:03:35.179Z,101048.31
2022-10-31T17:06:02.767Z,101041.34
2022-10-31T17:08:31.014Z,101054.66
2022-10-31T17:10:59.748Z,101052.03
2022-10-31T17:13:32.172Z,101048.47
2022-10-31T17:16:01.881Z,101045.09
2022-10-31T17:18:30.995Z,101054.56
2022-10-31T17:21:01.151Z,101062.44
2022-10-31T17:23:33.413Z,101068.84
2022-10-31T17:26:01.671Z,101074.13
2022-10-31T17:28:29.339Z,101067.97
2022-10-31T17:30:59.278Z,101067.06
2022-10-31T17:33:27.212Z,101083.69
2022-10-31T17:35:54.968Z,101076.84
2022-10-31T17:38:22.933Z,101076.84
2022-10-31T17:40:50.769Z,101076.13
2022-10-31T17:43:19.585Z,101073.50
2022-10-31T17:45:47.697Z,101076.94
2022-10-31T17:48:15.354Z,101069.34
2022-10-31T17:50:42.908Z,101083.28
2022-10-31T17:53:10.478Z,101092.06
2022-10-31T17:55:38.100Z,101093.03
2022-10-31T17:58:06.144Z,101104.44
2022-10-31T18:00:34.595Z,101103.66
2022-10-31T18:03:04.513Z,101109.59
2022-10-31T18:05:34.806Z,101107.06
2022-10-31T18:08:04.156Z,101104.44
2022-10-31T18:10:32.421Z,101101.94
2022-10-31T18:13:01.275Z,101115.13
2022-10-31T18:15:29.368Z,101115.34
2022-10-31T18:17:56.940Z,101113.66
2022-10-31T18:20:24.556Z,101117.28
2022-10-31T18:22:54.479Z,101114.81
2022-10-31T18:25:22.109Z,101117.66
2022-10-31T18:27:49.895Z,101127.34
2022-10-31T18:30:18.845Z,101140.38
2022-10-31T18:32:50.766Z,101141.28
2022-10-31T18:35:18.799Z,101142.25
2022-10-31T18:37:47.058Z,101139.78
2022-10-31T18:40:15.399Z,101132.00
2022-10-31T18:42:43.357Z,101125.94
2022-10-31T18:45:23.957Z,101135.53
2022-10-31T18:48:00.923Z,101136.44
2022-10-31T18:50:29.207Z,101139.91
2022-10-31T18:52:56.795Z,101152.97
2022-10-31T18:55:30.036Z,101153.03
2022-10-31T18:57:58.162Z,101148.63
2022-10-31T19:00:25.908Z,101151.16
2022-10-31T19:02:56.357Z,101154.81
2022-10-31T19:05:24.589Z,101159.03
2022-10-31T19:07:52.274Z,101167.16
2022-10-31T19:10:19.788Z,101167.03
2022-10-31T19:12:51.858Z,101158.53
2022-10-31T19:15:19.598Z,101156.06
2022-10-31T19:17:50.443Z,101156.19
2022-10-31T19:20:20.282Z,101161.25
2022-10-31T19:22:49.764Z,101169.31
2022-10-31T19:25:18.261Z,101171.94
2022-10-31T19:27:45.830Z,101175.59
2022-10-31T19:30:14.149Z,101177.50
2022-10-31T19:32:42.002Z,101180.03
2022-10-31T19:35:11.601Z,101182.56
2022-10-31T19:37:40.868Z,101181.66
2022-10-31T19:40:09.670Z,101183.41
2022-10-31T19:42:37.880Z,101180.84
2022-10-31T19:45:05.836Z,101184.28
2022-10-31T19:47:33.703Z,101190.38
2022-10-31T19:50:01.753Z,101208.78
2022-10-31T19:52:29.947Z,101212.31
2022-10-31T19:54:57.464Z,101204.59
2022-10-31T19:57:48.930Z,101204.72
2022-10-31T20:00:16.253Z,101202.09
2022-10-31T20:02:43.853Z,101206.44
2022-10-31T20:05:12.082Z,101203.84
2022-10-31T20:07:40.211Z,101203.03
2022-10-31T20:10:09.138Z,101207.34
2022-10-31T20:12:36.747Z,101214.53
2022-10-31T20:15:05.911Z,101217.94
2022-10-31T20:17:34.424Z,101221.25
2022-10-31T20:20:08.691Z,101227.22
2022-10-31T20:22:38.731Z,101227.31
2022-10-31T20:25:07.079Z,101233.59
2022-10-31T20:27:35.408Z,101231.16
2022-10-31T20:30:03.765Z,101225.91
2022-10-31T20:32:32.244Z,101237.31
